sensor_id;sensor_type;location;lat;lon;timestamp;pressure;altitude;pressure_sealevel;temperature;humidity
63493;BME280;49638;47.526;10.028;2023-07-09T00:00:36;92265.91;;;18.78;65.54
63493;BME280;49638;47.526;10.028;2023-07-09T00:03:36;92261.13;;;18.70;66.38
63493;BME280;49638;47.526;10.028;2023-07-09T00:06:38;92265.69;;;18.70;66.53
63493;BME280;49638;47.526;10.028;2023-07-09T00:09:39;92258.50;;;18.65;66.82
63493;BME280;49638;47.526;10.028;2023-07-09T00:12:39;92261.75;;;18.62;66.93
63493;BME280;49638;47.526;10.028;2023-07-09T00:15:39;92267.66;;;18.59;67.09
63493;BME280;49638;47.526;10.028;2023-07-09T00:18:40;92278.63;;;18.57;67.11
63493;BME280;49638;47.526;10.028;2023-07-09T00:21:40;92275.22;;;18.47;67.62
63493;BME280;49638;47.526;10.028;2023-07-09T00:24:40;92275.28;;;18.36;68.25
63493;BME280;49638;47.526;10.028;2023-07-09T00:27:44;92276.91;;;18.32;68.67
63493;BME280;49638;47.526;10.028;2023-07-09T00:30:48;92277.50;;;18.24;68.87
63493;BME280;49638;47.526;10.028;2023-07-09T00:33:48;92267.31;;;18.26;68.81
63493;BME280;49638;47.526;10.028;2023-07-09T00:36:49;92257.41;;;18.27;69.05
63493;BME280;49638;47.526;10.028;2023-07-09T00:39:50;92269.41;;;18.34;68.18
63493;BME280;49638;47.526;10.028;2023-07-09T00:42:53;92275.25;;;18.41;68.51
63493;BME280;49638;47.526;10.028;2023-07-09T00:49:12;92271.56;;;18.27;69.08
63493;BME280;49638;47.526;10.028;2023-07-09T00:52:29;92266.25;;;18.22;70.85
63493;BME280;49638;47.526;10.028;2023-07-09T00:55:36;92272.94;;;18.19;69.93
63493;BME280;49638;47.526;10.028;2023-07-09T00:58:39;92264.69;;;18.16;70.30
63493;BME280;49638;47.526;10.028;2023-07-09T01:01:39;92273.50;;;18.16;70.64
63493;BME280;49638;47.526;10.028;2023-07-09T01:04:42;92271.38;;;18.18;70.40
63493;BME280;49638;47.526;10.028;2023-07-09T01:07:43;92270.28;;;18.19;70.45
63493;BME280;49638;47.526;10.028;2023-07-09T01:10:46;92268.41;;;18.20;70.56
63493;BME280;49638;47.526;10.028;2023-07-09T01:13:51;92271.06;;;18.25;70.64
63493;BME280;49638;47.526;10.028;2023-07-09T01:16:55;92270.28;;;18.25;70.24
63493;BME280;49638;47.526;10.028;2023-07-09T01:19:58;92278.53;;;18.28;70.40
63493;BME280;49638;47.526;10.028;2023-07-09T01:22:59;92279.59;;;18.27;70.63
63493;BME280;49638;47.526;10.028;2023-07-09T01:26:00;92276.44;;;18.20;70.41
63493;BME280;49638;47.526;10.028;2023-07-09T01:29:01;92278.56;;;18.23;70.66
63493;BME280;49638;47.526;10.028;2023-07-09T01:32:03;92277.81;;;18.17;71.00
63493;BME280;49638;47.526;10.028;2023-07-09T01:35:06;92283.16;;;18.12;71.05
63493;BME280;49638;47.526;10.028;2023-07-09T01:38:07;92271.72;;;18.02;71.19
63493;BME280;49638;47.526;10.028;2023-07-09T01:41:07;92272.00;;;17.95;71.49
63493;BME280;49638;47.526;10.028;2023-07-09T01:44:08;92282.16;;;17.98;71.77
63493;BME280;49638;47.526;10.028;2023-07-09T01:47:08;92273.09;;;17.94;71.95
63493;BME280;49638;47.526;10.028;2023-07-09T01:50:09;92278.41;;;17.99;71.97
63493;BME280;49638;47.526;10.028;2023-07-09T01:53:12;92277.34;;;17.95;72.17
63493;BME280;49638;47.526;10.028;2023-07-09T01:56:13;92265.91;;;17.84;72.12
63493;BME280;49638;47.526;10.028;2023-07-09T01:59:13;92273.63;;;17.86;72.66
63493;BME280;49638;47.526;10.028;2023-07-09T02:02:13;92269.38;;;17.85;72.47
63493;BME280;49638;47.526;10.028;2023-07-09T02:05:19;92259.53;;;17.70;72.96
63493;BME280;49638;47.526;10.028;2023-07-09T02:08:19;92270.47;;;17.73;73.05
63493;BME280;49638;47.526;10.028;2023-07-09T02:11:20;92265.41;;;17.62;73.26
63493;BME280;49638;47.526;10.028;2023-07-09T02:14:20;92263.81;;;17.61;73.41
63493;BME280;49638;47.526;10.028;2023-07-09T02:17:20;92278.22;;;17.65;73.89
63493;BME280;49638;47.526;10.028;2023-07-09T02:20:20;92280.94;;;17.60;73.90
63493;BME280;49638;47.526;10.028;2023-07-09T02:23:25;92285.19;;;17.61;73.99
63493;BME280;49638;47.526;10.028;2023-07-09T02:26:26;92281.19;;;17.63;73.50
63493;BME280;49638;47.526;10.028;2023-07-09T02:29:27;92291.34;;;17.66;73.66
63493;BME280;49638;47.526;10.028;2023-07-09T02:32:28;92275.31;;;17.66;74.28
63493;BME280;49638;47.526;10.028;2023-07-09T02:35:28;92281.44;;;17.67;73.99
63493;BME280;49638;47.526;10.028;2023-07-09T02:38:28;92287.31;;;17.69;73.90
63493;BME280;49638;47.526;10.028;2023-07-09T02:41:29;92284.63;;;17.69;73.99
63493;BME280;49638;47.526;10.028;2023-07-09T02:44:30;92275.31;;;17.61;74.45
63493;BME280;49638;47.526;10.028;2023-07-09T02:47:30;92267.56;;;17.55;74.81
63493;BME280;49638;47.526;10.028;2023-07-09T02:50:30;92273.19;;;17.48;74.62
63493;BME280;49638;47.526;10.028;2023-07-09T02:53:31;92284.94;;;17.52;74.44
63493;BME280;49638;47.526;10.028;2023-07-09T02:56:31;92290.28;;;17.57;74.42
63493;BME280;49638;47.526;10.028;2023-07-09T02:59:31;92285.19;;;17.56;74.38
63493;BME280;49638;47.526;10.028;2023-07-09T03:02:33;92305.75;;;17.65;73.96
63493;BME280;49638;47.526;10.028;2023-07-09T03:05:34;92295.88;;;17.66;73.48
63493;BME280;49638;47.526;10.028;2023-07-09T03:08:34;92287.91;;;17.50;74.02
63493;BME280;49638;47.526;10.028;2023-07-09T03:11:35;92292.72;;;17.43;74.62
63493;BME280;49638;47.526;10.028;2023-07-09T03:14:36;92300.22;;;17.46;74.96
63493;BME280;49638;47.526;10.028;2023-07-09T03:17:36;92298.03;;;17.48;74.85
63493;BME280;49638;47.526;10.028;2023-07-09T03:20:36;92299.66;;;17.49;74.61
63493;BME280;49638;47.526;10.028;2023-07-09T03:23:38;92295.13;;;17.50;74.56
63493;BME280;49638;47.526;10.028;2023-07-09T03:26:39;92301.78;;;17.58;74.51
63493;BME280;49638;47.526;10.028;2023-07-09T03:29:39;92292.97;;;17.52;74.86
63493;BME280;49638;47.526;10.028;2023-07-09T03:32:39;92293.53;;;17.44;74.98
63493;BME280;49638;47.526;10.028;2023-07-09T03:35:40;92299.13;;;17.47;75.30
63493;BME280;49638;47.526;10.028;2023-07-09T03:38:40;92307.66;;;17.55;75.19
63493;BME280;49638;47.526;10.028;2023-07-09T03:41:40;92307.94;;;17.53;75.84
63493;BME280;49638;47.526;10.028;2023-07-09T03:44:41;92305.28;;;17.43;75.80
63493;BME280;49638;47.526;10.028;2023-07-09T03:47:41;92311.97;;;17.40;75.74
63493;BME280;49638;47.526;10.028;2023-07-09T03:50:44;92314.63;;;17.35;76.05
63493;BME280;49638;47.526;10.028;2023-07-09T03:53:45;92322.66;;;17.35;76.03
63493;BME280;49638;47.526;10.028;2023-07-09T03:56:45;92319.19;;;17.35;75.83
63493;BME280;49638;47.526;10.028;2023-07-09T03:59:45;92309.28;;;17.35;75.82
63493;BME280;49638;47.526;10.028;2023-07-09T04:02:46;92317.28;;;17.50;75.56
63493;BME280;49638;47.526;10.028;2023-07-09T04:05:47;92316.22;;;17.52;75.45
63493;BME280;49638;47.526;10.028;2023-07-09T04:08:48;92308.19;;;17.57;75.88
63493;BME280;49638;47.526;10.028;2023-07-09T04:11:48;92321.28;;;17.63;76.13
63493;BME280;49638;47.526;10.028;2023-07-09T04:14:49;92309.75;;;17.63;76.25
63493;BME280;49638;47.526;10.028;2023-07-09T04:17:49;92322.06;;;17.74;76.19
63493;BME280;49638;47.526;10.028;2023-07-09T04:20:50;92313.78;;;17.81;75.91
63493;BME280;49638;47.526;10.028;2023-07-09T04:23:51;92318.56;;;17.94;76.52
63493;BME280;49638;47.526;10.028;2023-07-09T04:26:51;92318.19;;;18.16;76.25
63493;BME280;49638;47.526;10.028;2023-07-09T04:29:56;92326.06;;;18.47;75.42
63493;BME280;49638;47.526;10.028;2023-07-09T04:32:57;92327.25;;;18.75;74.97
63493;BME280;49638;47.526;10.028;2023-07-09T04:35:57;92317.16;;;19.06;74.33
63493;BME280;49638;47.526;10.028;2023-07-09T04:38:58;92321.06;;;19.48;73.64
63493;BME280;49638;47.526;10.028;2023-07-09T04:41:58;92325.88;;;19.80;72.88
63493;BME280;49638;47.526;10.028;2023-07-09T04:44:58;92324.16;;;20.13;72.52
63493;BME280;49638;47.526;10.028;2023-07-09T04:47:59;92317.63;;;20.43;71.85
63493;BME280;49638;47.526;10.028;2023-07-09T04:50:59;92318.78;;;20.80;71.67
63493;BME280;49638;47.526;10.028;2023-07-09T04:53:59;92325.59;;;21.10;71.14
63493;BME280;49638;47.526;10.028;2023-07-09T04:57:04;92318.50;;;21.33;71.01
63493;BME280;49638;47.526;10.028;2023-07-09T05:00:05;92315.50;;;21.54;70.14
63493;BME280;49638;47.526;10.028;2023-07-09T05:03:06;92318.25;;;21.81;69.17
63493;BME280;49638;47.526;10.028;2023-07-09T05:06:06;92316.47;;;22.04;69.35
63493;BME280;49638;47.526;10.028;2023-07-09T05:09:06;92316.09;;;22.25;68.49
63493;BME280;49638;47.526;10.028;2023-07-09T05:12:07;92314.88;;;22.44;68.09
63493;BME280;49638;47.526;10.028;2023-07-09T05:15:08;92311.31;;;22.49;68.11
63493;BME280;49638;47.526;10.028;2023-07-09T05:18:09;92316.34;;;22.64;67.51
63493;BME280;49638;47.526;10.028;2023-07-09T05:21:09;92308.84;;;22.75;67.10
63493;BME280;49638;47.526;10.028;2023-07-09T05:24:10;92308.25;;;22.78;67.01
63493;BME280;49638;47.526;10.028;2023-07-09T05:27:10;92314.19;;;22.89;67.01
63493;BME280;49638;47.526;10.028;2023-07-09T05:30:11;92310.81;;;22.97;66.47
63493;BME280;49638;47.526;10.028;2023-07-09T05:33:11;92318.97;;;23.06;65.89
63493;BME280;49638;47.526;10.028;2023-07-09T05:36:11;92321.38;;;23.07;65.30
63493;BME280;49638;47.526;10.028;2023-07-09T05:39:15;92316.59;;;23.04;65.27
63493;BME280;49638;47.526;10.028;2023-07-09T05:42:16;92322.91;;;23.22;64.73
63493;BME280;49638;47.526;10.028;2023-07-09T05:45:16;92320.75;;;23.33;64.71
63493;BME280;49638;47.526;10.028;2023-07-09T05:48:16;92326.66;;;23.35;64.05
63493;BME280;49638;47.526;10.028;2023-07-09T05:51:17;92318.59;;;23.44;63.36
63493;BME280;49638;47.526;10.028;2023-07-09T05:54:18;92323.22;;;23.66;63.14
63493;BME280;49638;47.526;10.028;2023-07-09T05:57:18;92322.38;;;23.79;62.83
63493;BME280;49638;47.526;10.028;2023-07-09T06:00:19;92320.06;;;23.95;62.48
63493;BME280;49638;47.526;10.028;2023-07-09T06:03:21;92318.97;;;24.04;61.91
63493;BME280;49638;47.526;10.028;2023-07-09T06:06:22;92309.00;;;24.05;61.86
63493;BME280;49638;47.526;10.028;2023-07-09T06:09:22;92311.88;;;24.08;61.53
63493;BME280;49638;47.526;10.028;2023-07-09T06:12:23;92315.84;;;24.11;61.45
63493;BME280;49638;47.526;10.028;2023-07-09T06:15:25;92310.16;;;24.21;61.23
63493;BME280;49638;47.526;10.028;2023-07-09T06:18:26;92318.31;;;24.30;60.98
63493;BME280;49638;47.526;10.028;2023-07-09T06:21:30;92309.41;;;24.29;61.02
63493;BME280;49638;47.526;10.028;2023-07-09T06:24:30;92320.13;;;24.43;60.82
63493;BME280;49638;47.526;10.028;2023-07-09T06:27:30;92319.84;;;24.62;60.88
63493;BME280;49638;47.526;10.028;2023-07-09T06:30:30;92320.00;;;24.66;60.60
63493;BME280;49638;47.526;10.028;2023-07-09T06:33:31;92312.41;;;24.68;60.82
63493;BME280;49638;47.526;10.028;2023-07-09T06:36:31;92312.88;;;24.78;60.66
63493;BME280;49638;47.526;10.028;2023-07-09T06:39:31;92323.41;;;24.89;59.98
63493;BME280;49638;47.526;10.028;2023-07-09T06:42:31;92313.22;;;24.94;60.08
63493;BME280;49638;47.526;10.028;2023-07-09T06:45:32;92312.13;;;25.04;59.74
63493;BME280;49638;47.526;10.028;2023-07-09T06:48:32;92311.34;;;25.12;60.38
63493;BME280;49638;47.526;10.028;2023-07-09T06:51:33;92324.25;;;25.24;60.73
63493;BME280;49638;47.526;10.028;2023-07-09T06:54:33;92317.88;;;25.20;60.10
63493;BME280;49638;47.526;10.028;2023-07-09T06:57:33;92328.72;;;25.29;60.40
63493;BME280;49638;47.526;10.028;2023-07-09T07:00:35;92314.84;;;25.30;60.23
63493;BME280;49638;47.526;10.028;2023-07-09T07:03:36;92322.66;;;25.49;60.13
63493;BME280;49638;47.526;10.028;2023-07-09T07:06:37;92317.38;;;25.61;60.29
63493;BME280;49638;47.526;10.028;2023-07-09T07:09:37;92315.00;;;25.60;60.14
63493;BME280;49638;47.526;10.028;2023-07-09T07:12:47;92300.19;;;25.66;60.05
63493;BME280;49638;47.526;10.028;2023-07-09T07:15:48;92312.72;;;25.88;60.23
63493;BME280;49638;47.526;10.028;2023-07-09T07:18:49;92305.88;;;25.90;59.22
63493;BME280;49638;47.526;10.028;2023-07-09T07:21:50;92308.88;;;25.98;59.30
63493;BME280;49638;47.526;10.028;2023-07-09T07:24:50;92298.84;;;25.98;59.55
63493;BME280;49638;47.526;10.028;2023-07-09T07:27:51;92302.47;;;26.11;58.97
63493;BME280;49638;47.526;10.028;2023-07-09T07:30:59;92307.06;;;26.19;56.51
63493;BME280;49638;47.526;10.028;2023-07-09T07:33:59;92297.03;;;26.19;57.91
63493;BME280;49638;47.526;10.028;2023-07-09T07:36:59;92301.47;;;26.24;57.55
63493;BME280;49638;47.526;10.028;2023-07-09T07:40:00;92288.84;;;26.28;56.69
63493;BME280;49638;47.526;10.028;2023-07-09T07:43:00;92292.97;;;26.34;56.12
63493;BME280;49638;47.526;10.028;2023-07-09T07:46:01;92280.25;;;26.26;55.74
63493;BME280;49638;47.526;10.028;2023-07-09T07:49:01;92284.91;;;26.26;55.55
63493;BME280;49638;47.526;10.028;2023-07-09T07:52:01;92285.06;;;26.21;55.54
63493;BME280;49638;47.526;10.028;2023-07-09T07:55:07;92285.06;;;26.21;54.11
63493;BME280;49638;47.526;10.028;2023-07-09T07:58:12;92283.97;;;26.13;53.10
63493;BME280;49638;47.526;10.028;2023-07-09T08:01:13;92283.34;;;26.16;54.10
63493;BME280;49638;47.526;10.028;2023-07-09T08:04:13;92276.31;;;26.15;54.15
63493;BME280;49638;47.526;10.028;2023-07-09T08:07:13;92287.44;;;26.22;53.91
63493;BME280;49638;47.526;10.028;2023-07-09T08:10:13;92278.06;;;26.19;53.30
63493;BME280;49638;47.526;10.028;2023-07-09T08:13:15;92277.91;;;26.16;52.44
63493;BME280;49638;47.526;10.028;2023-07-09T08:16:16;92286.97;;;26.20;51.85
63493;BME280;49638;47.526;10.028;2023-07-09T08:19:19;92281.41;;;26.16;51.72
63493;BME280;49638;47.526;10.028;2023-07-09T08:22:20;92286.34;;;26.23;51.77
63493;BME280;49638;47.526;10.028;2023-07-09T08:25:21;92288.41;;;26.26;52.46
63493;BME280;49638;47.526;10.028;2023-07-09T08:28:22;92289.19;;;26.27;52.42
63493;BME280;49638;47.526;10.028;2023-07-09T08:31:22;92293.81;;;26.26;52.00
63493;BME280;49638;47.526;10.028;2023-07-09T08:34:22;92289.34;;;26.22;51.43
63493;BME280;49638;47.526;10.028;2023-07-09T08:37:23;92283.63;;;26.23;51.27
63493;BME280;49638;47.526;10.028;2023-07-09T08:40:23;92288.19;;;26.31;51.53
63493;BME280;49638;47.526;10.028;2023-07-09T08:46:58;92294.09;;;26.33;48.47
63493;BME280;49638;47.526;10.028;2023-07-09T08:50:03;92291.25;;;26.30;50.30
63493;BME280;49638;47.526;10.028;2023-07-09T08:53:10;92290.63;;;26.24;49.34
63493;BME280;49638;47.526;10.028;2023-07-09T08:56:15;92295.41;;;26.27;50.75
63493;BME280;49638;47.526;10.028;2023-07-09T08:59:17;92287.44;;;26.22;50.87
63493;BME280;49638;47.526;10.028;2023-07-09T09:02:44;92295.69;;;26.34;49.66
63493;BME280;49638;47.526;10.028;2023-07-09T09:05:48;92299.97;;;26.35;50.93
63493;BME280;49638;47.526;10.028;2023-07-09T09:09:12;92285.19;;;26.33;49.41
63493;BME280;49638;47.526;10.028;2023-07-09T09:12:21;92278.47;;;26.30;48.32
63493;BME280;49638;47.526;10.028;2023-07-09T09:15:25;92291.03;;;26.35;50.69
63493;BME280;49638;47.526;10.028;2023-07-09T09:18:28;92287.25;;;26.36;50.04
63493;BME280;49638;47.526;10.028;2023-07-09T09:21:35;92282.31;;;26.29;48.69
63493;BME280;49638;47.526;10.028;2023-07-09T09:24:58;92296.16;;;26.36;45.23
63493;BME280;49638;47.526;10.028;2023-07-09T09:28:01;92288.69;;;26.33;49.09
63493;BME280;49638;47.526;10.028;2023-07-09T09:31:02;92282.97;;;26.26;49.03
63493;BME280;49638;47.526;10.028;2023-07-09T09:34:02;92283.94;;;26.22;48.74
63493;BME280;49638;47.526;10.028;2023-07-09T09:37:10;92275.94;;;26.25;47.17
63493;BME280;49638;47.526;10.028;2023-07-09T09:40:11;92282.00;;;26.22;48.53
63493;BME280;49638;47.526;10.028;2023-07-09T09:43:15;92286.78;;;26.25;47.89
63493;BME280;49638;47.526;10.028;2023-07-09T09:46:18;92286.13;;;26.28;47.05
63493;BME280;49638;47.526;10.028;2023-07-09T09:49:19;92282.84;;;26.23;47.42
63493;BME280;49638;47.526;10.028;2023-07-09T09:52:20;92295.06;;;26.29;47.10
63493;BME280;49638;47.526;10.028;2023-07-09T09:55:31;92292.69;;;26.27;46.21
63493;BME280;49638;47.526;10.028;2023-07-09T09:58:32;92287.44;;;26.22;47.04
63493;BME280;49638;47.526;10.028;2023-07-09T10:01:34;92292.81;;;26.31;47.00
63493;BME280;49638;47.526;10.028;2023-07-09T10:04:35;92289.19;;;26.27;46.90
63493;BME280;49638;47.526;10.028;2023-07-09T10:07:39;92297.44;;;26.30;46.51
63493;BME280;49638;47.526;10.028;2023-07-09T10:10:44;92293.81;;;26.26;46.33
63493;BME280;49638;47.526;10.028;2023-07-09T10:13:47;92299.38;;;26.30;46.22
63493;BME280;49638;47.526;10.028;2023-07-09T10:16:50;92297.31;;;26.27;46.02
63493;BME280;49638;47.526;10.028;2023-07-09T10:19:56;92307.16;;;26.31;46.82
63493;BME280;49638;47.526;10.028;2023-07-09T10:23:03;92299.03;;;26.31;45.55
63493;BME280;49638;47.526;10.028;2023-07-09T10:26:16;92304.00;;;26.29;45.00
63493;BME280;49638;47.526;10.028;2023-07-09T10:32:54;92293.53;;;26.19;45.28
63493;BME280;49638;47.526;10.028;2023-07-09T10:39:32;92301.16;;;26.17;43.74
63493;BME280;49638;47.526;10.028;2023-07-09T10:42:44;92297.84;;;26.11;43.70
63493;BME280;49638;47.526;10.028;2023-07-09T10:45:56;92300.25;;;26.13;42.98
63493;BME280;49638;47.526;10.028;2023-07-09T10:48:59;92290.84;;;26.10;44.42
63493;BME280;49638;47.526;10.028;2023-07-09T10:52:40;92290.34;;;26.08;41.82
63493;BME280;49638;47.526;10.028;2023-07-09T10:55:53;92290.19;;;26.13;42.44
63493;BME280;49638;47.526;10.028;2023-07-09T10:59:04;92277.91;;;26.16;42.22
63493;BME280;49638;47.526;10.028;2023-07-09T11:02:28;92275.81;;;26.22;40.56
63493;BME280;49638;47.526;10.028;2023-07-09T11:05:30;92268.81;;;26.21;44.10
63493;BME280;49638;47.526;10.028;2023-07-09T11:08:38;92267.81;;;26.25;41.31
63493;BME280;49638;47.526;10.028;2023-07-09T11:11:44;92262.22;;;26.30;42.88
63493;BME280;49638;47.526;10.028;2023-07-09T11:14:55;92272.56;;;26.37;42.04
63493;BME280;49638;47.526;10.028;2023-07-09T11:17:59;92251.03;;;26.32;43.60
63493;BME280;49638;47.526;10.028;2023-07-09T11:21:07;92262.66;;;26.41;42.39
63493;BME280;49638;47.526;10.028;2023-07-09T11:24:29;92267.41;;;26.44;41.58
63493;BME280;49638;47.526;10.028;2023-07-09T11:27:31;92251.47;;;26.42;44.28
63493;BME280;49638;47.526;10.028;2023-07-09T11:30:32;92263.44;;;26.50;43.97
63493;BME280;49638;47.526;10.028;2023-07-09T11:33:32;92259.25;;;26.53;43.51
63493;BME280;49638;47.526;10.028;2023-07-09T11:36:45;92251.28;;;26.56;43.72
63493;BME280;49638;47.526;10.028;2023-07-09T11:39:47;92243.19;;;26.48;44.20
63493;BME280;49638;47.526;10.028;2023-07-09T11:42:55;92258.59;;;26.56;43.11
63493;BME280;49638;47.526;10.028;2023-07-09T11:45:59;92247.63;;;26.52;44.37
63493;BME280;49638;47.526;10.028;2023-07-09T11:49:01;92250.81;;;26.54;44.04
63493;BME280;49638;47.526;10.028;2023-07-09T11:52:05;92228.63;;;26.52;42.29
63493;BME280;49638;47.526;10.028;2023-07-09T11:58:21;92235.28;;;26.63;44.10
63493;BME280;49638;47.526;10.028;2023-07-09T12:01:24;92243.69;;;26.71;43.26
63493;BME280;49638;47.526;10.028;2023-07-09T12:04:32;92233.50;;;26.68;42.80
63493;BME280;49638;47.526;10.028;2023-07-09T12:07:34;92251.03;;;26.70;43.73
63493;BME280;49638;47.526;10.028;2023-07-09T12:10:36;92240.63;;;26.72;44.03
63493;BME280;49638;47.526;10.028;2023-07-09T12:13:39;92242.69;;;26.75;44.40
63493;BME280;49638;47.526;10.028;2023-07-09T12:16:42;92238.72;;;26.73;44.92
63493;BME280;49638;47.526;10.028;2023-07-09T12:19:43;92238.25;;;26.71;44.53
63493;BME280;49638;47.526;10.028;2023-07-09T12:22:43;92243.81;;;26.74;44.30
63493;BME280;49638;47.526;10.028;2023-07-09T12:25:50;92229.00;;;26.72;42.52
63493;BME280;49638;47.526;10.028;2023-07-09T12:28:53;92225.50;;;26.71;43.29
63493;BME280;49638;47.526;10.028;2023-07-09T12:31:56;92226.75;;;26.74;43.14
63493;BME280;49638;47.526;10.028;2023-07-09T12:34:57;92228.34;;;26.75;43.66
63493;BME280;49638;47.526;10.028;2023-07-09T12:37:57;92220.53;;;26.73;43.61
63493;BME280;49638;47.526;10.028;2023-07-09T12:41:00;92224.19;;;26.77;43.96
63493;BME280;49638;47.526;10.028;2023-07-09T12:44:00;92225.41;;;26.80;44.82
63493;BME280;49638;47.526;10.028;2023-07-09T12:47:00;92221.13;;;26.79;45.00
63493;BME280;49638;47.526;10.028;2023-07-09T12:53:26;92219.03;;;26.84;44.59
63493;BME280;49638;47.526;10.028;2023-07-09T12:56:27;92221.06;;;26.87;44.30
63493;BME280;49638;47.526;10.028;2023-07-09T12:59:37;92216.09;;;26.89;42.57
63493;BME280;49638;47.526;10.028;2023-07-09T13:02:38;92215.00;;;26.91;43.98
63493;BME280;49638;47.526;10.028;2023-07-09T13:05:38;92218.00;;;26.89;43.21
63493;BME280;49638;47.526;10.028;2023-07-09T13:08:43;92224.03;;;26.95;42.47
63493;BME280;49638;47.526;10.028;2023-07-09T13:11:44;92216.34;;;26.97;43.25
63493;BME280;49638;47.526;10.028;2023-07-09T13:14:55;92218.41;;;27.00;41.84
63493;BME280;49638;47.526;10.028;2023-07-09T13:18:01;92212.13;;;27.08;42.91
63493;BME280;49638;47.526;10.028;2023-07-09T13:21:15;92204.25;;;27.15;42.18
63493;BME280;49638;47.526;10.028;2023-07-09T13:24:20;92203.72;;;27.22;42.75
63493;BME280;49638;47.526;10.028;2023-07-09T13:27:22;92197.28;;;27.26;43.05
63493;BME280;49638;47.526;10.028;2023-07-09T13:30:23;92200.91;;;27.30;42.91
63493;BME280;49638;47.526;10.028;2023-07-09T13:33:23;92199.22;;;27.26;43.22
63493;BME280;49638;47.526;10.028;2023-07-09T13:36:24;92193.00;;;27.25;43.45
63493;BME280;49638;47.526;10.028;2023-07-09T13:39:25;92201.94;;;27.26;43.33
63493;BME280;49638;47.526;10.028;2023-07-09T13:42:25;92190.47;;;27.20;42.85
63493;BME280;49638;47.526;10.028;2023-07-09T13:45:25;92195.25;;;27.23;42.51
63493;BME280;49638;47.526;10.028;2023-07-09T13:48:27;92186.41;;;27.14;42.49
63493;BME280;49638;47.526;10.028;2023-07-09T13:51:28;92196.84;;;27.24;42.19
63493;BME280;49638;47.526;10.028;2023-07-09T13:54:32;92200.66;;;27.23;42.40
63493;BME280;49638;47.526;10.028;2023-07-09T13:57:35;92194.81;;;27.21;42.36
63493;BME280;49638;47.526;10.028;2023-07-09T14:00:36;92199.88;;;27.23;42.11
63493;BME280;49638;47.526;10.028;2023-07-09T14:03:37;92189.25;;;27.18;41.88
63493;BME280;49638;47.526;10.028;2023-07-09T14:06:37;92198.44;;;27.25;42.19
63493;BME280;49638;47.526;10.028;2023-07-09T14:09:37;92190.47;;;27.20;42.45
63493;BME280;49638;47.526;10.028;2023-07-09T14:12:41;92191.41;;;27.24;43.07
63493;BME280;49638;47.526;10.028;2023-07-09T14:15:43;92202.53;;;27.31;43.23
63493;BME280;49638;47.526;10.028;2023-07-09T14:18:43;92197.75;;;27.28;42.81
63493;BME280;49638;47.526;10.028;2023-07-09T14:21:45;92202.53;;;27.31;42.70
63493;BME280;49638;47.526;10.028;2023-07-09T14:24:45;92205.69;;;27.33;42.66
63493;BME280;49638;47.526;10.028;2023-07-09T14:27:46;92199.59;;;27.36;43.42
63493;BME280;49638;47.526;10.028;2023-07-09T14:30:48;92199.59;;;27.36;43.33
63493;BME280;49638;47.526;10.028;2023-07-09T14:33:50;92206.81;;;27.32;43.55
63493;BME280;49638;47.526;10.028;2023-07-09T14:36:52;92198.66;;;27.32;43.72
63493;BME280;49638;47.526;10.028;2023-07-09T14:39:53;92202.66;;;27.35;43.42
63493;BME280;49638;47.526;10.028;2023-07-09T14:42:53;92199.81;;;27.31;43.05
63493;BME280;49638;47.526;10.028;2023-07-09T14:45:53;92194.81;;;27.33;43.30
63493;BME280;49638;47.526;10.028;2023-07-09T14:48:54;92188.59;;;27.33;43.14
63493;BME280;49638;47.526;10.028;2023-07-09T14:51:55;92190.66;;;27.36;42.82
63493;BME280;49638;47.526;10.028;2023-07-09T14:54:55;92174.25;;;27.32;43.10
63493;BME280;49638;47.526;10.028;2023-07-09T14:57:56;92177.63;;;27.29;43.07
63493;BME280;49638;47.526;10.028;2023-07-09T15:00:59;92177.88;;;27.36;42.43
63493;BME280;49638;47.526;10.028;2023-07-09T15:04:14;92181.06;;;27.39;41.60
63493;BME280;49638;47.526;10.028;2023-07-09T15:07:22;92178.00;;;27.40;42.26
63493;BME280;49638;47.526;10.028;2023-07-09T15:10:24;92176.41;;;27.39;42.87
63493;BME280;49638;47.526;10.028;2023-07-09T15:13:32;92168.59;;;27.38;41.81
63493;BME280;49638;47.526;10.028;2023-07-09T15:16:33;92167.00;;;27.36;42.34
63493;BME280;49638;47.526;10.028;2023-07-09T15:19:34;92164.75;;;27.39;42.64
63493;BME280;49638;47.526;10.028;2023-07-09T15:22:35;92158.75;;;27.33;42.83
63493;BME280;49638;47.526;10.028;2023-07-09T15:25:35;92162.25;;;27.33;42.53
63493;BME280;49638;47.526;10.028;2023-07-09T15:28:35;92162.72;;;27.35;42.62
63493;BME280;49638;47.526;10.028;2023-07-09T15:31:36;92144.72;;;27.31;42.56
63493;BME280;49638;47.526;10.028;2023-07-09T15:34:36;92150.50;;;27.29;42.66
63493;BME280;49638;47.526;10.028;2023-07-09T15:37:36;92158.44;;;27.34;42.76
63493;BME280;49638;47.526;10.028;2023-07-09T15:40:37;92145.97;;;27.33;42.30
63493;BME280;49638;47.526;10.028;2023-07-09T15:43:37;92143.72;;;27.35;42.21
63493;BME280;49638;47.526;10.028;2023-07-09T15:46:38;92152.09;;;27.43;41.99
63493;BME280;49638;47.526;10.028;2023-07-09T15:49:40;92143.16;;;27.42;42.04
63493;BME280;49638;47.526;10.028;2023-07-09T15:52:40;92137.63;;;27.39;42.22
63493;BME280;49638;47.526;10.028;2023-07-09T15:55:40;92147.34;;;27.40;42.16
63493;BME280;49638;47.526;10.028;2023-07-09T15:58:43;92127.44;;;27.35;42.17
63493;BME280;49638;47.526;10.028;2023-07-09T16:01:44;92143.28;;;27.46;42.00
63493;BME280;49638;47.526;10.028;2023-07-09T16:04:45;92146.59;;;27.51;41.96
63493;BME280;49638;47.526;10.028;2023-07-09T16:07:46;92135.97;;;27.58;40.13
63493;BME280;49638;47.526;10.028;2023-07-09T16:10:46;92126.22;;;27.57;39.10
63493;BME280;49638;47.526;10.028;2023-07-09T16:13:47;92139.22;;;27.64;38.96